Time;durP1;ratioP1;P1;durP2;ratioP2;P2;SDS_P1;SDS_P2;PMS_P1;PMS_P2;Temp;Humidity;BMP_temperature;BMP_pressure;BME280_temperature;BME280_humidity;BME280_pressure;Samples;Min_cycle;Max_cycle;Signal;HPM_P1;HPM_P2
2023/01/12 00:00:10;;;;;;;10.82;7.53;;;;;;;6.47;100.00;100569.00;10186594;28;20042;-68
2023/01/12 00:05:06;;;;;;;12.38;7.22;;;;;;;6.47;100.00;100562.78;10184857;28;20806;-68
2023/01/12 00:10:03;;;;;;;11.10;6.95;;;;;;;6.57;100.00;100559.09;10186342;28;20050;-68
2023/01/12 00:15:00;;;;;;;15.80;6.93;;;;;;;6.54;100.00;100557.78;10188178;28;20077;-70
2023/01/12 00:19:56;;;;;;;17.98;7.07;;;;;;;6.60;100.00;100550.38;10185829;28;20050;-68
2023/01/12 00:24:53;;;;;;;17.17;6.90;;;;;;;6.65;100.00;100591.84;10189483;28;20155;-70
2023/01/12 00:29:50;;;;;;;17.02;8.10;;;;;;;6.61;100.00;100551.97;10191093;28;20046;-70
2023/01/12 00:34:48;;;;;;;8.40;6.00;;;;;;;6.63;100.00;100538.91;10186704;28;20050;-70
2023/01/12 00:39:44;;;;;;;15.65;7.88;;;;;;;6.60;100.00;100531.38;10183318;28;20050;-67
2023/01/12 00:50:07;;;;;;;10.32;6.07;;;;;;;6.69;100.00;100543.19;10138553;28;20058;-67
2023/01/12 00:55:04;;;;;;;8.57;5.60;;;;;;;6.82;100.00;100534.25;10177257;28;20077;-69
2023/01/12 01:00:00;;;;;;;12.50;6.13;;;;;;;6.84;100.00;100523.09;10185364;28;20042;-69
2023/01/12 01:04:57;;;;;;;7.72;5.72;;;;;;;6.78;100.00;100525.09;10192134;28;20499;-69
2023/01/12 01:09:54;;;;;;;12.85;6.00;;;;;;;6.81;100.00;100513.63;10183440;28;20073;-69
2023/01/12 01:14:52;;;;;;;7.20;5.35;;;;;;;6.85;100.00;100513.84;10153388;28;20476;-67
2023/01/12 01:19:48;;;;;;;8.70;4.82;;;;;;;6.88;100.00;100505.88;10143359;28;20084;-69
2023/01/12 01:24:46;;;;;;;14.50;5.82;;;;;;;6.88;100.00;100495.00;10182129;28;20416;-68
2023/01/12 01:29:42;;;;;;;13.63;5.60;;;;;;;6.85;100.00;100492.09;10189050;28;20919;-67
2023/01/12 01:34:39;;;;;;;15.32;4.80;;;;;;;6.92;100.00;100497.97;10185675;28;20140;-67
2023/01/12 01:39:36;;;;;;;17.23;7.30;;;;;;;6.97;100.00;100502.50;10151939;28;20464;-68
2023/01/12 01:44:32;;;;;;;13.40;5.88;;;;;;;7.08;100.00;100498.50;10179522;28;20070;-68
2023/01/12 01:49:37;;;;;;;12.23;5.72;;;;;;;7.11;100.00;100506.03;10187996;28;20046;-68
2023/01/12 01:54:38;;;;;;;10.77;4.70;;;;;;;7.15;100.00;100486.13;10184143;28;20061;-68
2023/01/12 01:59:39;;;;;;;10.48;4.93;;;;;;;7.17;100.00;100485.78;10184181;28;20423;-68
2023/01/12 02:04:36;;;;;;;12.48;5.28;;;;;;;7.23;100.00;100476.44;10175831;28;20499;-68
2023/01/12 02:09:33;;;;;;;12.57;4.97;;;;;;;7.26;100.00;100469.59;10184324;28;20912;-68
2023/01/12 02:20:15;;;;;;;9.23;4.63;;;;;;;7.29;100.00;100505.16;10182614;28;20463;-67
2023/01/12 02:25:47;;;;;;;11.02;4.80;;;;;;;7.29;100.00;100480.69;10139270;28;20046;-67
2023/01/12 02:30:56;;;;;;;12.35;4.70;;;;;;;7.32;100.00;100485.53;10174892;28;20738;-67
2023/01/12 02:35:57;;;;;;;11.35;4.80;;;;;;;7.32;100.00;100485.53;10185740;28;20050;-68
2023/01/12 02:42:39;;;;;;;8.93;4.40;;;;;;;7.32;100.00;100496.41;10180715;28;20136;-67
2023/01/12 02:46:41;;;;;;;14.13;4.88;;;;;;;7.33;100.00;100486.31;10173269;28;20584;-68
2023/01/12 02:51:53;;;;;;;11.70;4.78;;;;;;;7.31;100.00;100472.22;10187259;28;20049;-68
2023/01/12 02:56:53;;;;;;;11.02;5.70;;;;;;;7.25;100.00;100476.16;10172510;28;20871;-68
2023/01/12 03:01:52;;;;;;;13.10;5.80;;;;;;;7.08;100.00;100477.53;10175560;28;20089;-68
2023/01/12 03:06:54;;;;;;;14.48;6.25;;;;;;;7.12;100.00;100480.47;10179333;28;20049;-68
2023/01/12 03:11:52;;;;;;;;;;;;;;;7.19;100.00;100485.50;10177949;28;20141;-68
2023/01/12 03:16:50;;;;;;;6.25;4.60;;;;;;;7.09;100.00;100481.06;10165508;28;20013;-69
2023/01/12 03:22:03;;;;;;;9.07;5.07;;;;;;;7.01;100.00;100479.03;10152837;28;20042;-69
2023/01/12 03:27:13;;;;;;;8.55;4.63;;;;;;;6.90;100.00;100484.66;10183892;28;20567;-68
2023/01/12 03:32:09;;;;;;;9.18;5.10;;;;;;;6.95;100.00;100492.72;10186756;28;20132;-68
2023/01/12 03:37:21;;;;;;;9.77;4.75;;;;;;;7.04;100.00;100481.16;10178760;28;20074;-68
2023/01/12 03:42:26;;;;;;;6.63;4.30;;;;;;;7.07;100.00;100477.84;10180430;28;20077;-68
2023/01/12 03:47:25;;;;;;;7.78;4.65;;;;;;;7.13;100.00;100454.91;10176612;28;20517;-69
2023/01/12 03:52:24;;;;;;;8.77;4.97;;;;;;;7.10;100.00;100474.50;10187035;28;20042;-69
2023/01/12 03:57:22;;;;;;;17.10;7.97;;;;;;;7.09;100.00;100454.69;10170386;28;20073;-69
2023/01/12 04:02:19;;;;;;;9.35;5.05;;;;;;;7.07;100.00;100461.53;10163332;28;20053;-69
2023/01/12 04:07:15;;;;;;;9.30;6.13;;;;;;;7.08;100.00;100449.56;10179385;28;20042;-69
2023/01/12 04:12:12;;;;;;;13.18;5.35;;;;;;;7.09;100.00;100448.44;10179608;28;20555;-69
2023/01/12 04:17:13;;;;;;;9.60;5.70;;;;;;;7.11;100.00;100447.03;10194947;28;20053;-69
2023/01/12 04:27:29;;;;;;;6.63;5.70;;;;;;;7.14;100.00;100430.09;10165431;28;20057;-68
2023/01/12 04:32:25;;;;;;;10.35;5.80;;;;;;;7.17;100.00;100428.69;10184004;28;20042;-69
2023/01/12 04:37:22;;;;;;;8.25;6.05;;;;;;;7.19;100.00;100421.03;10183539;28;20124;-68
2023/01/12 04:47:33;;;;;;;10.13;5.60;;;;;;;7.16;100.00;100417.03;10162754;28;20080;-67
2023/01/12 04:52:29;;;;;;;11.35;5.82;;;;;;;7.19;100.00;100403.94;10192222;28;20570;-69
2023/01/12 04:57:26;;;;;;;9.40;5.78;;;;;;;7.21;100.00;100407.97;10180296;28;20073;-69
2023/01/12 05:02:23;;;;;;;8.70;5.72;;;;;;;7.23;100.00;100394.88;10180767;28;20046;-69
2023/01/12 05:07:20;;;;;;;10.73;6.60;;;;;;;7.24;100.00;100385.63;10170145;28;20045;-69
2023/01/12 05:12:16;;;;;;;12.00;7.10;;;;;;;7.28;100.00;100388.53;10160830;28;20050;-68
2023/01/12 05:17:13;;;;;;;12.80;7.40;;;;;;;7.19;100.00;100376.75;10165488;28;20041;-68
2023/01/12 05:22:10;;;;;;;9.70;8.05;;;;;;;6.95;100.00;100378.56;10169768;28;20124;-68
2023/01/12 05:27:06;;;;;;;13.35;8.88;;;;;;;6.83;100.00;100380.19;10167632;28;20068;-68
2023/01/12 05:32:03;;;;;;;9.55;8.65;;;;;;;6.73;100.00;100373.03;10168606;28;20057;-68
2023/01/12 05:36:59;;;;;;;12.23;8.77;;;;;;;6.71;100.00;100361.66;10161131;28;20100;-68
2023/01/12 05:47:11;;;;;;;11.93;9.60;;;;;;;6.65;100.00;100332.94;10168095;28;20049;-67
2023/01/12 05:52:07;;;;;;;10.70;9.60;;;;;;;6.63;100.00;100327.00;10186753;28;20435;-67
2023/01/12 05:57:04;;;;;;;10.27;9.38;;;;;;;6.65;100.00;100330.22;10166113;28;20507;-67
2023/01/12 06:02:00;;;;;;;10.48;9.45;;;;;;;6.63;100.00;100311.50;10174988;28;20703;-68
2023/01/12 06:06:57;;;;;;;15.57;9.40;;;;;;;6.63;100.00;100310.72;10170456;28;20041;-68
2023/01/12 06:17:08;;;;;;;10.57;9.32;;;;;;;6.60;100.00;100295.03;10162428;28;20056;-67
2023/01/12 06:22:08;;;;;;;11.70;9.63;;;;;;;6.62;100.00;100284.66;10157005;28;20060;-68
2023/01/12 06:27:04;;;;;;;11.95;10.18;;;;;;;6.65;100.00;100275.91;10159384;28;20056;-68
2023/01/12 06:32:01;;;;;;;10.07;9.27;;;;;;;6.65;100.00;100265.03;10172209;28;20133;-68
2023/01/12 06:36:57;;;;;;;11.82;10.77;;;;;;;6.67;100.00;100262.81;10155957;28;20070;-68
2023/01/12 06:47:09;;;;;;;11.25;10.10;;;;;;;6.67;100.00;100246.53;10135897;28;20038;-68
2023/01/12 06:52:06;;;;;;;11.27;10.00;;;;;;;6.70;100.00;100243.19;10169695;28;20534;-68
2023/01/12 06:57:02;;;;;;;11.52;10.38;;;;;;;6.79;100.00;100227.78;10169757;28;20053;-68
2023/01/12 07:01:59;;;;;;;12.15;10.90;;;;;;;6.79;100.00;100211.47;10181136;28;20138;-68
2023/01/12 07:06:55;;;;;;;11.45;10.32;;;;;;;6.79;100.00;100216.91;10148680;28;20788;-68
2023/01/12 07:11:52;;;;;;;11.60;10.65;;;;;;;6.80;100.00;100202.25;10149077;28;20053;-68
2023/01/12 07:16:48;;;;;;;11.63;10.63;;;;;;;6.79;100.00;100189.75;10165741;28;20050;-68
2023/01/12 07:21:45;;;;;;;12.57;11.48;;;;;;;6.81;100.00;100165.78;10170796;28;20089;-69
2023/01/12 07:26:41;;;;;;;12.10;11.15;;;;;;;6.84;100.00;100154.31;10172462;28;20137;-68
2023/01/12 07:31:38;;;;;;;13.85;11.15;;;;;;;6.85;100.00;100134.19;10175667;28;20073;-68
2023/01/12 07:36:34;;;;;;;11.98;11.05;;;;;;;6.87;100.00;100131.13;10163216;28;20133;-67
2023/01/12 07:46:46;;;;;;;8.90;6.43;;;;;;;6.89;100.00;100102.56;10181692;28;20080;-68
2023/01/12 07:51:43;;;;;;;8.57;6.35;;;;;;;6.89;100.00;100102.56;10181036;28;20045;-68
2023/01/12 07:56:40;;;;;;;11.40;5.18;;;;;;;6.89;100.00;100102.56;10167192;28;20060;-68
2023/01/12 08:01:39;;;;;;;11.95;5.63;;;;;;;6.89;100.00;100075.41;10152572;28;20047;-68
2023/01/12 08:06:36;;;;;;;8.60;4.78;;;;;;;6.87;100.00;100087.66;10135993;28;20042;-68
2023/01/12 08:11:33;;;;;;;7.10;4.18;;;;;;;6.89;100.00;100053.66;10167043;28;20078;-68
2023/01/12 08:16:38;;;;;;;9.02;5.03;;;;;;;6.86;100.00;100043.38;10176759;28;20048;-68
2023/01/12 08:21:44;;;;;;;5.78;4.13;;;;;;;6.81;100.00;100042.72;10175482;28;20077;-68
2023/01/12 08:26:43;;;;;;;6.07;4.10;;;;;;;6.75;100.00;100031.16;10168307;28;20142;-68
2023/01/12 08:31:41;;;;;;;7.40;4.28;;;;;;;6.75;100.00;100009.41;10186544;28;20527;-68
2023/01/12 08:36:40;;;;;;;6.80;3.67;;;;;;;6.72;100.00;100015.47;10172006;28;20046;-69
2023/01/12 08:41:41;;;;;;;6.55;3.90;;;;;;;6.78;100.00;100008.81;10174805;28;20546;-68
2023/01/12 08:46:47;;;;;;;5.35;4.10;;;;;;;6.75;100.00;99993.13;10164331;28;20058;-68
2023/01/12 08:51:45;;;;;;;4.20;3.70;;;;;;;6.71;100.00;99998.38;10158233;28;20058;-68
2023/01/12 08:56:41;;;;;;;3.97;3.40;;;;;;;6.75;100.00;99998.56;10138860;28;20172;-68
2023/01/12 09:01:38;;;;;;;4.95;3.20;;;;;;;6.77;100.00;99990.91;10137778;28;20136;-68
2023/01/12 09:06:38;;;;;;;4.50;3.35;;;;;;;6.80;100.00;99984.88;10170040;28;20061;-68
2023/01/12 09:11:37;;;;;;;4.28;3.55;;;;;;;6.81;100.00;99974.78;10165352;28;20132;-68
2023/01/12 09:16:33;;;;;;;5.53;3.20;;;;;;;6.89;100.00;99999.31;10146878;28;20050;-68
2023/01/12 09:21:31;;;;;;;4.88;2.97;;;;;;;6.88;100.00;99986.81;10169220;28;20129;-68
2023/01/12 09:26:30;;;;;;;4.38;3.72;;;;;;;6.93;100.00;100000.25;10173538;28;20206;-69
2023/01/12 09:31:29;;;;;;;4.65;3.17;;;;;;;6.93;100.00;99989.41;10163065;28;20437;-69
2023/01/12 09:36:27;;;;;;;4.07;3.03;;;;;;;7.02;100.00;99985.94;10155143;28;20042;-69
2023/01/12 09:46:58;;;;;;;3.72;3.42;;;;;;;7.15;100.00;99980.41;10163375;28;20046;-70
2023/01/12 09:52:12;;;;;;;3.70;3.40;;;;;;;7.28;100.00;99992.28;10182218;28;20564;-69
2023/01/12 09:57:50;;;;;;;4.88;3.60;;;;;;;7.34;100.00;99977.44;10171097;28;20046;-70
2023/01/12 10:03:10;;;;;;;4.13;3.72;;;;;;;7.39;100.00;99984.66;10180709;28;20056;-70
2023/01/12 10:08:35;;;;;;;4.65;3.85;;;;;;;7.52;100.00;99967.44;10166634;28;20042;-70
2023/01/12 10:14:12;;;;;;;5.55;5.03;;;;;;;7.57;100.00;100001.88;10151028;28;20042;-69
2023/01/12 10:19:18;;;;;;;4.38;3.28;;;;;;;7.57;100.00;99985.53;10162472;28;20070;-70
2023/01/12 10:24:20;;;;;;;3.90;3.60;;;;;;;7.61;100.00;99991.13;10170195;28;20476;-70
2023/01/12 10:29:16;;;;;;;5.33;3.93;;;;;;;7.70;100.00;100005.56;10179051;28;20064;-70
2023/01/12 10:34:12;;;;;;;5.20;3.40;;;;;;;7.70;100.00;100006.34;10169533;28;20136;-70
2023/01/12 10:39:31;;;;;;;4.72;4.18;;;;;;;7.76;100.00;99999.66;10177150;28;20077;-71
2023/01/12 10:44:28;;;;;;;4.38;3.45;;;;;;;7.83;100.00;100014.75;10169531;28;20120;-70
2023/01/12 10:49:25;;;;;;;5.82;3.65;;;;;;;7.92;100.00;99996.50;10176348;28;20500;-70
2023/01/12 10:54:27;;;;;;;4.35;3.42;;;;;;;7.98;100.00;100000.66;10150968;28;20047;-70
2023/01/12 10:59:30;;;;;;;3.63;3.33;;;;;;;7.97;100.00;99983.53;10154112;28;20100;-69
2023/01/12 11:04:28;;;;;;;3.95;3.65;;;;;;;8.00;100.00;99987.53;10166443;28;20504;-70
2023/01/12 11:09:27;;;;;;;4.05;2.90;;;;;;;8.02;100.00;99985.31;10171049;28;20084;-70
2023/01/12 11:14:42;;;;;;;3.35;2.92;;;;;;;8.12;100.00;99979.56;10174786;28;20133;-70
2023/01/12 11:19:42;;;;;;;4.18;3.00;;;;;;;8.13;100.00;99970.25;10166406;28;20133;-70
2023/01/12 11:25:01;;;;;;;4.43;3.20;;;;;;;8.18;100.00;99981.00;10174927;28;20530;-70
2023/01/12 11:30:06;;;;;;;3.30;3.00;;;;;;;8.21;100.00;99985.81;10129225;28;20054;-70
2023/01/12 11:35:43;;;;;;;6.28;2.53;;;;;;;8.25;100.00;99990.63;10138444;28;20481;-70
2023/01/12 11:40:42;;;;;;;2.90;2.60;;;;;;;8.25;100.00;99998.78;10182371;28;20165;-69
2023/01/12 11:45:49;;;;;;;4.10;2.38;;;;;;;8.26;100.00;100000.38;10168587;28;20054;-70
2023/01/12 11:50:47;;;;;;;2.90;2.35;;;;;;;8.24;100.00;100000.72;10178090;28;20764;-69
2023/01/12 11:55:58;;;;;;;3.95;2.20;;;;;;;8.29;100.00;99972.53;10174029;28;20132;-70
2023/01/12 12:01:06;;;;;;;4.57;2.00;;;;;;;8.31;100.00;100008.38;10177773;28;20053;-69
2023/01/12 12:06:17;;;;;;;3.90;2.33;;;;;;;8.35;100.00;99993.00;10170977;28;20531;-69
2023/01/12 12:11:33;;;;;;;3.90;2.50;;;;;;;8.41;100.00;100008.13;10157614;28;20413;-70
2023/01/12 12:16:50;;;;;;;2.92;1.98;;;;;;;8.49;100.00;100026.38;10185096;28;20052;-70
2023/01/12 12:22:10;;;;;;;4.07;2.60;;;;;;;8.48;100.00;100003.00;10183183;28;20050;-69
2023/01/12 12:27:34;;;;;;;3.92;2.63;;;;;;;8.50;100.00;100005.41;10172946;28;20137;-70
2023/01/12 12:32:39;;;;;;;2.95;1.83;;;;;;;8.51;100.00;100010.50;10181214;28;20138;-69
2023/01/12 12:37:38;;;;;;;2.65;1.75;;;;;;;8.57;100.00;100017.41;10163904;28;20065;-69
2023/01/12 12:48:11;;;;;;;4.28;2.13;;;;;;;8.69;100.00;100024.13;10179320;28;20467;-69
2023/01/12 12:53:16;;;;;;;5.35;2.67;;;;;;;8.74;100.00;100032.16;10175810;28;20558;-69
2023/01/12 12:58:22;;;;;;;3.25;2.42;;;;;;;8.73;100.00;100014.19;10168865;28;21383;-69
2023/01/12 13:03:40;;;;;;;3.42;2.58;;;;;;;8.71;100.00;100016.44;10159679;28;20302;-69
2023/01/12 13:08:37;;;;;;;4.43;2.90;;;;;;;8.95;100.00;100019.44;10159369;28;20069;-69
2023/01/12 13:13:37;;;;;;;4.13;2.80;;;;;;;9.38;100.00;100013.06;10184849;28;20046;-69
2023/01/12 13:18:52;;;;;;;8.10;3.72;;;;;;;9.55;100.00;100016.88;10167366;28;20050;-69
2023/01/12 13:24:10;;;;;;;6.97;3.83;;;;;;;9.67;100.00;100025.16;10166934;28;20053;-70
2023/01/12 13:29:21;;;;;;;7.57;4.10;;;;;;;9.73;100.00;100021.13;10166420;28;20046;-70
2023/01/12 13:34:30;;;;;;;6.35;4.57;;;;;;;9.56;100.00;100035.66;10180156;28;20049;-71
2023/01/12 13:39:27;;;;;;;9.98;4.43;;;;;;;9.51;100.00;100043.19;10170853;28;20065;-70
2023/01/12 13:44:32;;;;;;;10.60;4.68;;;;;;;9.44;100.00;100044.50;10184278;28;20528;-70
2023/01/12 13:49:30;;;;;;;7.40;3.88;;;;;;;9.44;100.00;100047.22;10179267;28;20080;-70
2023/01/12 13:54:27;;;;;;;6.95;4.15;;;;;;;9.39;100.00;100066.50;10161520;28;20046;-70
2023/01/12 13:59:25;;;;;;;11.05;6.10;;;;;;;9.41;100.00;100066.97;10138808;28;20712;-70
2023/01/12 14:04:28;;;;;;;9.65;5.00;;;;;;;9.39;100.00;100069.22;10151081;28;20101;-70
2023/01/12 14:09:43;;;;;;;7.60;4.53;;;;;;;9.44;100.00;100066.31;10127119;28;20076;-69
2023/01/12 14:20:12;;;;;;;9.13;4.90;;;;;;;9.43;100.00;100070.19;10173670;28;20062;-69
2023/01/12 14:25:13;;;;;;;9.60;4.90;;;;;;;9.45;100.00;100084.31;10171675;28;20132;-69
2023/01/12 14:30:11;;;;;;;9.18;5.25;;;;;;;9.39;100.00;100085.59;10169173;28;20073;-69
2023/01/12 14:35:22;;;;;;;9.10;5.72;;;;;;;9.40;100.00;100091.84;10170456;28;20074;-69
2023/01/12 14:40:27;;;;;;;8.32;5.50;;;;;;;9.39;100.00;100101.97;10166165;28;20056;-67
2023/01/12 14:51:17;;;;;;;12.50;6.13;;;;;;;9.33;100.00;100100.56;10166514;28;20052;-68
2023/01/12 14:56:55;;;;;;;12.07;5.60;;;;;;;9.35;100.00;100111.97;10166698;28;20133;-67
2023/01/12 15:01:52;;;;;;;9.52;5.88;;;;;;;9.24;100.00;100110.69;10163586;28;20077;-67
2023/01/12 15:07:00;;;;;;;8.65;4.90;;;;;;;9.13;100.00;100120.31;10163290;28;20075;-67
2023/01/12 15:11:58;;;;;;;9.63;5.10;;;;;;;9.10;100.00;100131.84;10157499;28;20108;-68
2023/01/12 15:27:26;;;;;;;15.73;6.15;;;;;;;8.89;100.00;100153.50;10179641;28;20046;-67
2023/01/12 15:32:29;;;;;;;14.73;5.88;;;;;;;8.79;100.00;100155.44;10180117;28;20132;-67
2023/01/12 15:37:41;;;;;;;19.27;6.85;;;;;;;8.80;100.00;100153.53;10172923;28;20049;-67
2023/01/12 15:42:38;;;;;;;18.25;6.78;;;;;;;8.85;100.00;100159.63;10174451;28;20412;-66
2023/01/12 15:47:34;;;;;;;14.93;7.38;;;;;;;8.86;100.00;100157.69;10169269;28;20048;-67
2023/01/12 15:52:31;;;;;;;12.60;6.40;;;;;;;8.89;100.00;100164.41;10166033;28;20046;-69
2023/01/12 15:57:27;;;;;;;14.20;7.22;;;;;;;8.94;100.00;100156.91;10167197;28;20050;-70
2023/01/12 16:02:36;;;;;;;13.32;6.43;;;;;;;8.97;100.00;100167.16;10157430;28;20081;-68
2023/01/12 16:07:32;;;;;;;15.65;7.22;;;;;;;8.95;100.00;100163.94;10135832;28;20047;-68
2023/01/12 16:12:29;;;;;;;18.13;9.13;;;;;;;8.99;100.00;100164.91;10153205;28;20052;-68
2023/01/12 16:17:26;;;;;;;11.95;6.65;;;;;;;9.03;100.00;100160.44;10167828;28;20071;-67
2023/01/12 16:22:25;;;;;;;11.82;8.00;;;;;;;9.07;100.00;100163.31;10176730;28;20318;-70
2023/01/12 16:27:24;;;;;;;14.20;7.63;;;;;;;9.09;100.00;100174.69;10170561;28;20397;-71
2023/01/12 16:32:22;;;;;;;9.63;6.50;;;;;;;9.15;100.00;100167.19;10180988;28;20509;-70
2023/01/12 16:37:21;;;;;;;8.68;6.68;;;;;;;9.15;100.00;100150.81;10182667;28;20050;-70
2023/01/12 16:42:18;;;;;;;8.00;6.45;;;;;;;9.14;100.00;100149.19;10185782;28;20412;-70
2023/01/12 16:47:18;;;;;;;8.30;6.32;;;;;;;9.18;100.00;100147.44;10185709;28;20485;-70
2023/01/12 16:52:17;;;;;;;8.43;6.55;;;;;;;9.18;100.00;100131.84;10176486;28;20543;-70
2023/01/12 16:57:16;;;;;;;7.28;6.15;;;;;;;9.17;100.00;100126.75;10187088;28;20116;-70
2023/01/12 17:02:14;;;;;;;21.10;7.57;;;;;;;9.18;100.00;100128.34;10184038;28;20050;-70
2023/01/12 17:07:11;;;;;;;8.60;6.68;;;;;;;9.14;100.00;100127.38;10180522;28;20930;-70
2023/01/12 17:12:08;;;;;;;11.50;6.70;;;;;;;9.15;100.00;100129.00;10182353;28;20042;-70
2023/01/12 17:17:08;;;;;;;9.73;7.30;;;;;;;9.16;100.00;100123.19;10178679;28;20046;-71
2023/01/12 17:22:06;;;;;;;8.57;7.65;;;;;;;9.15;100.00;100123.53;10174886;28;20564;-70
2023/01/12 17:27:03;;;;;;;10.13;6.97;;;;;;;9.13;100.00;100114.88;10166677;28;20042;-70
2023/01/12 17:32:02;;;;;;;6.72;6.03;;;;;;;9.12;100.00;100110.53;10165568;28;20140;-70
2023/01/12 17:37:06;;;;;;;7.28;5.35;;;;;;;9.09;100.00;100103.78;10159431;28;20100;-70
2023/01/12 17:47:18;;;;;;;4.43;3.75;;;;;;;9.03;100.00;100100.44;10156346;28;20054;-70
2023/01/12 17:52:15;;;;;;;5.28;3.25;;;;;;;9.03;100.00;100094.19;10160981;28;20519;-70
2023/01/12 17:57:12;;;;;;;4.35;3.45;;;;;;;9.04;100.00;100084.88;10164945;28;20067;-71
2023/01/12 18:02:10;;;;;;;6.18;3.83;;;;;;;9.02;100.00;100082.47;10165420;28;20046;-70
2023/01/12 18:07:07;;;;;;;4.45;3.20;;;;;;;9.01;100.00;100075.41;10151501;28;20756;-70
2023/01/12 18:12:04;;;;;;;4.70;3.05;;;;;;;9.00;100.00;100068.34;10151707;28;20381;-70
2023/01/12 18:17:00;;;;;;;3.33;2.60;;;;;;;8.99;100.00;100068.69;10145923;28;20778;-70
2023/01/12 18:21:57;;;;;;;4.05;2.35;;;;;;;8.98;100.00;100067.91;10150696;28;20137;-70
2023/01/12 18:26:53;;;;;;;3.15;2.63;;;;;;;8.96;100.00;100067.41;10144712;28;20489;-70
2023/01/12 18:31:50;;;;;;;4.72;3.40;;;;;;;8.98;100.00;100070.63;10147507;28;20149;-70
2023/01/12 18:36:47;;;;;;;4.10;2.97;;;;;;;8.96;100.00;100061.97;10167906;28;20073;-71
2023/01/12 18:57:32;;;;;;;4.18;2.92;;;;;;;8.97;100.00;100041.72;10169502;28;20047;-70
2023/01/12 19:02:28;;;;;;;4.53;2.92;;;;;;;8.96;100.00;100040.16;10172174;28;20045;-70
2023/01/12 19:07:38;;;;;;;4.72;3.30;;;;;;;8.96;100.00;100023.78;10165957;28;20084;-70
2023/01/12 19:12:35;;;;;;;4.35;3.10;;;;;;;8.96;100.00;100023.78;10163289;28;20045;-70
2023/01/12 19:17:31;;;;;;;3.33;2.53;;;;;;;8.97;100.00;100025.38;10163334;28;20038;-70
2023/01/12 19:32:59;;;;;;;3.75;3.00;;;;;;;8.91;100.00;100004.88;10162818;28;20560;-70
2023/01/12 19:37:56;;;;;;;3.35;2.70;;;;;;;8.90;100.00;99997.81;10170790;28;20052;-70
2023/01/12 19:43:12;;;;;;;3.63;2.47;;;;;;;8.92;100.00;100005.66;10165787;28;20073;-70
2023/01/12 19:48:11;;;;;;;3.42;2.45;;;;;;;8.90;100.00;100007.91;10177058;28;20046;-70
2023/01/12 19:53:11;;;;;;;3.38;2.80;;;;;;;8.89;100.00;99996.22;10183949;28;20073;-71
2023/01/12 19:58:08;;;;;;;4.57;2.70;;;;;;;8.88;100.00;99989.16;10186963;28;20403;-71
2023/01/12 20:03:05;;;;;;;4.07;2.72;;;;;;;8.88;100.00;99994.59;10186742;28;20385;-70
2023/01/12 20:08:01;;;;;;;4.57;3.30;;;;;;;8.88;100.00;99982.91;10168266;28;20062;-70
2023/01/12 20:12:58;;;;;;;5.70;3.53;;;;;;;8.89;100.00;99974.41;10176761;28;20069;-70
2023/01/12 20:17:58;;;;;;;4.93;3.90;;;;;;;8.92;100.00;99987.38;10172267;28;20097;-70
2023/01/12 20:22:55;;;;;;;5.40;4.20;;;;;;;8.95;100.00;99984.00;10166783;28;20606;-70
2023/01/12 20:27:52;;;;;;;3.53;3.17;;;;;;;8.96;100.00;99980.16;10172972;28;20652;-70
2023/01/12 20:32:50;;;;;;;5.13;3.85;;;;;;;8.94;100.00;99974.22;10181483;28;20077;-70
2023/01/12 20:37:48;;;;;;;5.07;3.72;;;;;;;8.95;100.00;99988.66;10178176;28;20472;-71
2023/01/12 20:42:44;;;;;;;7.20;3.53;;;;;;;8.90;100.00;99994.28;10166790;28;20050;-72
2023/01/12 20:47:41;;;;;;;5.47;4.00;;;;;;;8.91;100.00;99988.53;10181331;28;20137;-71
2023/01/12 20:52:37;;;;;;;4.20;3.60;;;;;;;8.85;100.00;100012.41;10165827;28;20050;-70
2023/01/12 20:57:37;;;;;;;4.10;3.30;;;;;;;8.84;100.00;100004.53;10161632;28;20125;-73
2023/01/12 21:02:34;;;;;;;4.05;3.10;;;;;;;8.81;100.00;100021.56;10163014;28;20077;-70
2023/01/12 21:07:31;;;;;;;6.55;3.13;;;;;;;8.80;100.00;100036.31;10162071;28;20054;-71
2023/01/12 21:12:27;;;;;;;3.95;2.80;;;;;;;8.79;100.00;100045.59;10170592;28;20464;-71
2023/01/12 21:17:24;;;;;;;4.57;3.28;;;;;;;8.80;100.00;100025.41;10168093;28;20050;-71
2023/01/12 21:22:20;;;;;;;6.03;3.90;;;;;;;8.80;100.00;100033.59;10162711;28;20124;-71
2023/01/12 21:27:17;;;;;;;4.97;3.78;;;;;;;8.78;100.00;100044.81;10170926;28;20073;-71
2023/01/12 21:32:13;;;;;;;5.63;3.38;;;;;;;8.79;100.00;100034.69;10170519;28;20096;-73
2023/01/12 21:37:10;;;;;;;4.50;3.63;;;;;;;8.82;100.00;100028.63;10173146;28;20046;-73
2023/01/12 21:47:21;;;;;;;3.80;3.33;;;;;;;8.86;100.00;100035.00;10168885;28;20526;-73
2023/01/12 21:52:18;;;;;;;4.45;3.42;;;;;;;8.83;100.00;100019.31;10191453;28;20053;-74
2023/01/12 21:57:14;;;;;;;4.05;3.65;;;;;;;8.83;100.00;100013.84;10174400;28;20062;-74
2023/01/12 22:02:11;;;;;;;4.70;3.67;;;;;;;8.82;100.00;100020.44;10175509;28;20049;-74
2023/01/12 22:07:08;;;;;;;3.92;3.53;;;;;;;8.85;100.00;100006.16;10179853;28;20238;-74
2023/01/12 22:12:04;;;;;;;3.65;3.35;;;;;;;8.84;100.00;100010.81;10184358;28;20056;-74
2023/01/12 22:17:01;;;;;;;4.78;3.72;;;;;;;8.88;100.00;100015.63;10178191;28;20496;-75
2023/01/12 22:21:57;;;;;;;3.80;3.28;;;;;;;8.89;100.00;100004.41;10174644;28;20043;-70
2023/01/12 22:26:54;;;;;;;4.80;3.60;;;;;;;8.87;100.00;100008.56;10172929;28;20516;-70
2023/01/12 22:31:50;;;;;;;7.35;5.25;;;;;;;8.90;100.00;99995.09;10167524;28;20074;-70
2023/01/12 22:36:47;;;;;;;4.40;3.70;;;;;;;8.94;100.00;100004.22;10171946;28;20096;-70
2023/01/12 22:41:43;;;;;;;4.78;4.10;;;;;;;8.90;100.00;99992.34;10176415;28;20508;-70
2023/01/12 22:46:40;;;;;;;4.40;4.00;;;;;;;8.91;100.00;99996.69;10163986;28;20101;-70
2023/01/12 22:51:36;;;;;;;3.97;3.58;;;;;;;8.92;100.00;100006.47;10171203;28;20049;-73
2023/01/12 22:56:33;;;;;;;4.38;3.80;;;;;;;8.94;100.00;99993.31;10176027;28;20042;-73
2023/01/12 23:01:29;;;;;;;4.40;3.75;;;;;;;8.99;100.00;100001.31;10167878;28;20066;-73
2023/01/12 23:06:26;;;;;;;3.90;3.15;;;;;;;8.88;100.00;99977.44;10177818;28;20558;-73
2023/01/12 23:11:25;;;;;;;4.50;3.90;;;;;;;8.91;100.00;99977.63;10174673;28;20053;-73
2023/01/12 23:16:21;;;;;;;5.20;3.60;;;;;;;8.91;100.00;99976.78;10178277;28;20140;-73
2023/01/12 23:21:23;;;;;;;4.53;3.80;;;;;;;8.90;100.00;99965.09;10178028;28;20496;-73
2023/01/12 23:26:22;;;;;;;4.18;3.78;;;;;;;8.90;100.00;99973.28;10176933;28;20065;-73
2023/01/12 23:31:22;;;;;;;4.43;3.88;;;;;;;8.93;100.00;99958.97;10171986;28;20042;-73
2023/01/12 23:36:22;;;;;;;5.20;4.00;;;;;;;8.98;100.00;99961.56;10173421;28;20042;-73
2023/01/12 23:41:20;;;;;;;7.18;4.55;;;;;;;8.96;100.00;99961.06;10166359;28;20046;-73
2023/01/12 23:46:21;;;;;;;3.97;3.55;;;;;;;9.01;100.00;99950.00;10167255;28;20042;-70
2023/01/12 23:51:17;;;;;;;5.10;3.30;;;;;;;8.96;100.00;99938.47;10176347;28;20574;-70
2023/01/12 23:56:15;;;;;;;3.10;2.60;;;;;;;8.89;100.00;99919.88;10169481;28;20050;-73
